sensor_id;sensor_type;location;lat;lon;timestamp;pressure;altitude;pressure_sealevel;temperature;humidity
12666;BME280;58531;59.050;17.416;2023-05-23T00:01:40;101048.50;;;8.73;85.23
12666;BME280;58531;59.050;17.416;2023-05-23T00:04:08;101042.84;;;8.71;84.86
12666;BME280;58531;59.050;17.416;2023-05-23T00:06:35;101045.16;;;8.69;85.34
12666;BME280;58531;59.050;17.416;2023-05-23T00:09:03;101041.81;;;8.65;86.54
12666;BME280;58531;59.050;17.416;2023-05-23T00:11:30;101040.31;;;8.64;87.74
12666;BME280;58531;59.050;17.416;2023-05-23T00:13:56;101032.34;;;8.64;89.45
12666;BME280;58531;59.050;17.416;2023-05-23T00:16:27;101032.34;;;8.64;89.18
12666;BME280;58531;59.050;17.416;2023-05-23T00:18:54;101042.66;;;8.62;89.31
12666;BME280;58531;59.050;17.416;2023-05-23T00:21:22;101034.78;;;8.55;89.36
12666;BME280;58531;59.050;17.416;2023-05-23T00:23:48;101035.75;;;8.45;89.32
12666;BME280;58531;59.050;17.416;2023-05-23T00:26:15;101030.50;;;8.41;89.05
12666;BME280;58531;59.050;17.416;2023-05-23T00:28:42;101025.25;;;8.38;89.04
12666;BME280;58531;59.050;17.416;2023-05-23T00:31:09;101020.88;;;8.47;88.93
12666;BME280;58531;59.050;17.416;2023-05-23T00:33:37;101018.69;;;8.62;88.24
12666;BME280;58531;59.050;17.416;2023-05-23T00:36:04;101027.69;;;8.68;88.60
12666;BME280;58531;59.050;17.416;2023-05-23T00:38:31;101015.88;;;8.69;88.73
12666;BME280;58531;59.050;17.416;2023-05-23T00:40:58;101016.63;;;8.69;88.79
12666;BME280;58531;59.050;17.416;2023-05-23T00:43:26;101020.19;;;8.63;89.30
12666;BME280;58531;59.050;17.416;2023-05-23T00:45:54;101021.44;;;8.58;90.12
12666;BME280;58531;59.050;17.416;2023-05-23T00:48:21;101022.97;;;8.56;90.40
12666;BME280;58531;59.050;17.416;2023-05-23T00:50:49;101021.00;;;8.60;90.77
12666;BME280;58531;59.050;17.416;2023-05-23T00:53:16;101025.50;;;8.63;91.37
12666;BME280;58531;59.050;17.416;2023-05-23T00:55:43;101019.16;;;8.57;90.67
12666;BME280;58531;59.050;17.416;2023-05-23T00:58:10;101019.59;;;8.55;90.86
12666;BME280;58531;59.050;17.416;2023-05-23T01:00:37;101019.66;;;8.52;91.06
12666;BME280;58531;59.050;17.416;2023-05-23T01:03:04;101010.59;;;8.49;90.69
12666;BME280;58531;59.050;17.416;2023-05-23T01:05:31;101012.34;;;8.56;90.57
12666;BME280;58531;59.050;17.416;2023-05-23T01:07:59;101010.09;;;8.54;90.25
12666;BME280;58531;59.050;17.416;2023-05-23T01:10:28;101009.97;;;8.61;89.42
12666;BME280;58531;59.050;17.416;2023-05-23T01:13:05;101009.53;;;8.63;89.40
12666;BME280;58531;59.050;17.416;2023-05-23T01:15:39;101016.25;;;8.51;90.09
12666;BME280;58531;59.050;17.416;2023-05-23T01:18:15;101009.28;;;8.38;90.94
12666;BME280;58531;59.050;17.416;2023-05-23T01:20:48;101010.97;;;8.28;91.40
12666;BME280;58531;59.050;17.416;2023-05-23T01:23:27;101013.03;;;8.21;92.06
12666;BME280;58531;59.050;17.416;2023-05-23T01:26:15;101011.34;;;8.08;92.73
12666;BME280;58531;59.050;17.416;2023-05-23T01:28:49;101014.41;;;8.06;93.03
12666;BME280;58531;59.050;17.416;2023-05-23T01:31:17;101015.19;;;8.07;92.77
12666;BME280;58531;59.050;17.416;2023-05-23T01:33:45;101006.78;;;8.08;92.80
12666;BME280;58531;59.050;17.416;2023-05-23T01:36:14;101007.81;;;8.14;92.50
12666;BME280;58531;59.050;17.416;2023-05-23T01:38:41;101008.88;;;8.20;92.12
12666;BME280;58531;59.050;17.416;2023-05-23T01:41:08;101016.38;;;8.25;92.10
12666;BME280;58531;59.050;17.416;2023-05-23T01:43:35;101010.97;;;8.28;91.82
12666;BME280;58531;59.050;17.416;2023-05-23T01:46:05;101012.47;;;8.29;91.90
12666;BME280;58531;59.050;17.416;2023-05-23T01:48:33;101008.75;;;8.27;92.22
12666;BME280;58531;59.050;17.416;2023-05-23T01:51:00;101009.94;;;8.22;92.55
12666;BME280;58531;59.050;17.416;2023-05-23T01:53:27;101008.09;;;8.19;92.61
12666;BME280;58531;59.050;17.416;2023-05-23T01:55:56;101004.38;;;8.17;92.70
12666;BME280;58531;59.050;17.416;2023-05-23T01:58:23;101005.50;;;8.16;93.08
12666;BME280;58531;59.050;17.416;2023-05-23T02:00:50;101007.03;;;8.17;93.67
12666;BME280;58531;59.050;17.416;2023-05-23T02:03:18;100995.91;;;8.22;94.00
12666;BME280;58531;59.050;17.416;2023-05-23T02:05:45;100985.59;;;8.24;94.64
12666;BME280;58531;59.050;17.416;2023-05-23T02:08:12;100986.28;;;8.28;94.69
12666;BME280;58531;59.050;17.416;2023-05-23T02:10:38;100986.63;;;8.30;94.82
12666;BME280;58531;59.050;17.416;2023-05-23T02:13:05;100981.19;;;8.37;94.98
12666;BME280;58531;59.050;17.416;2023-05-23T02:15:32;100979.69;;;8.36;95.92
12666;BME280;58531;59.050;17.416;2023-05-23T02:17:59;100971.28;;;8.37;96.61
12666;BME280;58531;59.050;17.416;2023-05-23T02:20:28;100969.28;;;8.41;96.77
12666;BME280;58531;59.050;17.416;2023-05-23T02:22:55;100970.75;;;8.62;96.57
12666;BME280;58531;59.050;17.416;2023-05-23T02:25:22;100974.28;;;8.75;96.73
12666;BME280;58531;59.050;17.416;2023-05-23T02:27:49;100964.41;;;8.91;95.60
12666;BME280;58531;59.050;17.416;2023-05-23T02:30:15;100969.84;;;9.04;94.51
12666;BME280;58531;59.050;17.416;2023-05-23T02:32:42;100964.75;;;9.25;93.21
12666;BME280;58531;59.050;17.416;2023-05-23T02:35:10;100954.53;;;9.39;92.33
12666;BME280;58531;59.050;17.416;2023-05-23T02:37:38;100955.00;;;9.50;91.72
12666;BME280;58531;59.050;17.416;2023-05-23T02:40:06;100963.50;;;9.61;90.33
12666;BME280;58531;59.050;17.416;2023-05-23T02:42:33;100956.31;;;9.74;90.38
12666;BME280;58531;59.050;17.416;2023-05-23T02:45:00;100952.63;;;9.84;89.84
12666;BME280;58531;59.050;17.416;2023-05-23T02:47:27;100950.00;;;9.97;89.39
12666;BME280;58531;59.050;17.416;2023-05-23T02:49:54;100953.38;;;10.13;88.63
12666;BME280;58531;59.050;17.416;2023-05-23T02:52:20;100948.31;;;10.31;87.98
12666;BME280;58531;59.050;17.416;2023-05-23T02:54:49;100950.03;;;10.50;87.08
12666;BME280;58531;59.050;17.416;2023-05-23T02:57:15;100953.59;;;10.72;85.92
12666;BME280;58531;59.050;17.416;2023-05-23T02:59:42;100944.19;;;10.92;85.27
12666;BME280;58531;59.050;17.416;2023-05-23T03:02:09;100951.63;;;11.35;84.45
12666;BME280;58531;59.050;17.416;2023-05-23T03:04:36;100945.75;;;12.16;80.60
12666;BME280;58531;59.050;17.416;2023-05-23T03:07:03;100944.31;;;12.85;77.03
12666;BME280;58531;59.050;17.416;2023-05-23T03:09:30;100944.38;;;13.03;75.10
12666;BME280;58531;59.050;17.416;2023-05-23T03:11:59;100942.75;;;12.97;74.55
12666;BME280;58531;59.050;17.416;2023-05-23T03:14:25;100943.44;;;12.88;74.08
12666;BME280;58531;59.050;17.416;2023-05-23T03:16:52;100945.31;;;13.00;73.33
12666;BME280;58531;59.050;17.416;2023-05-23T03:19:19;100942.78;;;13.05;74.12
12666;BME280;58531;59.050;17.416;2023-05-23T03:21:46;100935.22;;;13.22;73.84
12666;BME280;58531;59.050;17.416;2023-05-23T03:24:14;100938.53;;;13.71;72.08
12666;BME280;58531;59.050;17.416;2023-05-23T03:26:41;100934.97;;;13.83;67.75
12666;BME280;58531;59.050;17.416;2023-05-23T03:29:09;100929.06;;;14.29;66.62
12666;BME280;58531;59.050;17.416;2023-05-23T03:31:36;100932.53;;;14.29;66.10
12666;BME280;58531;59.050;17.416;2023-05-23T03:34:03;100929.53;;;14.10;66.49
12666;BME280;58531;59.050;17.416;2023-05-23T03:36:31;100929.56;;;14.01;67.06
12666;BME280;58531;59.050;17.416;2023-05-23T03:38:58;100927.78;;;13.98;66.56
12666;BME280;58531;59.050;17.416;2023-05-23T03:41:25;100927.63;;;14.01;67.12
12666;BME280;58531;59.050;17.416;2023-05-23T03:43:52;100922.69;;;14.09;67.20
12666;BME280;58531;59.050;17.416;2023-05-23T03:46:20;100922.69;;;14.18;67.55
12666;BME280;58531;59.050;17.416;2023-05-23T03:48:47;100922.69;;;15.00;64.18
12666;BME280;58531;59.050;17.416;2023-05-23T03:51:14;100913.41;;;15.86;61.07
12666;BME280;58531;59.050;17.416;2023-05-23T03:53:41;100913.50;;;16.49;59.15
12666;BME280;58531;59.050;17.416;2023-05-23T03:56:07;100913.66;;;16.60;57.61
12666;BME280;58531;59.050;17.416;2023-05-23T03:58:34;100906.44;;;16.37;57.20
12666;BME280;58531;59.050;17.416;2023-05-23T04:01:01;100909.13;;;15.79;59.17
12666;BME280;58531;59.050;17.416;2023-05-23T04:03:30;100907.38;;;15.91;59.31
12666;BME280;58531;59.050;17.416;2023-05-23T04:05:58;100902.69;;;15.77;59.68
12666;BME280;58531;59.050;17.416;2023-05-23T04:08:25;100906.63;;;16.05;58.38
12666;BME280;58531;59.050;17.416;2023-05-23T04:10:53;100913.25;;;16.81;55.88
12666;BME280;58531;59.050;17.416;2023-05-23T04:13:20;100905.03;;;17.95;51.90
12666;BME280;58531;59.050;17.416;2023-05-23T04:15:49;100904.34;;;18.26;50.08
12666;BME280;58531;59.050;17.416;2023-05-23T04:18:16;100905.81;;;18.27;50.56
12666;BME280;58531;59.050;17.416;2023-05-23T04:20:45;100903.31;;;18.23;50.64
12666;BME280;58531;59.050;17.416;2023-05-23T04:23:12;100900.22;;;18.05;49.12
12666;BME280;58531;59.050;17.416;2023-05-23T04:25:39;100905.81;;;18.01;50.14
12666;BME280;58531;59.050;17.416;2023-05-23T04:28:05;100898.81;;;18.15;50.58
12666;BME280;58531;59.050;17.416;2023-05-23T04:30:34;100894.31;;;17.56;50.65
12666;BME280;58531;59.050;17.416;2023-05-23T04:33:02;100890.69;;;18.15;51.88
12666;BME280;58531;59.050;17.416;2023-05-23T04:35:30;100889.09;;;18.65;48.50
12666;BME280;58531;59.050;17.416;2023-05-23T04:37:59;100883.84;;;18.87;49.64
12666;BME280;58531;59.050;17.416;2023-05-23T04:40:28;100886.13;;;20.67;45.38
12666;BME280;58531;59.050;17.416;2023-05-23T04:42:55;100889.16;;;22.41;39.76
12666;BME280;58531;59.050;17.416;2023-05-23T04:45:21;100888.47;;;23.81;37.69
12666;BME280;58531;59.050;17.416;2023-05-23T04:47:48;100885.38;;;23.71;35.99
12666;BME280;58531;59.050;17.416;2023-05-23T04:50:15;100888.25;;;23.79;36.96
12666;BME280;58531;59.050;17.416;2023-05-23T04:52:42;100884.38;;;22.71;39.37
12666;BME280;58531;59.050;17.416;2023-05-23T04:55:11;100883.28;;;22.02;40.67
12666;BME280;58531;59.050;17.416;2023-05-23T04:57:37;100878.47;;;20.76;44.72
12666;BME280;58531;59.050;17.416;2023-05-23T05:00:05;100879.72;;;19.82;45.07
12666;BME280;58531;59.050;17.416;2023-05-23T05:02:34;100881.44;;;19.00;48.27
12666;BME280;58531;59.050;17.416;2023-05-23T05:05:01;100873.56;;;18.54;51.02
12666;BME280;58531;59.050;17.416;2023-05-23T05:07:28;100870.72;;;18.32;51.86
12666;BME280;58531;59.050;17.416;2023-05-23T05:09:55;100878.63;;;18.10;53.25
12666;BME280;58531;59.050;17.416;2023-05-23T05:12:23;100873.47;;;17.82;55.26
12666;BME280;58531;59.050;17.416;2023-05-23T05:14:50;100872.75;;;17.61;56.59
12666;BME280;58531;59.050;17.416;2023-05-23T05:17:17;100869.41;;;17.26;56.14
12666;BME280;58531;59.050;17.416;2023-05-23T05:19:44;100864.44;;;17.39;55.00
12666;BME280;58531;59.050;17.416;2023-05-23T05:22:11;100860.53;;;17.40;55.13
12666;BME280;58531;59.050;17.416;2023-05-23T05:24:38;100852.75;;;17.28;55.73
12666;BME280;58531;59.050;17.416;2023-05-23T05:27:05;100858.09;;;17.42;54.90
12666;BME280;58531;59.050;17.416;2023-05-23T05:29:35;100862.38;;;18.36;52.88
12666;BME280;58531;59.050;17.416;2023-05-23T05:32:02;100865.94;;;19.91;47.44
12666;BME280;58531;59.050;17.416;2023-05-23T05:34:29;100866.13;;;22.13;43.32
12666;BME280;58531;59.050;17.416;2023-05-23T05:36:56;100866.19;;;23.95;39.03
12666;BME280;58531;59.050;17.416;2023-05-23T05:39:23;100866.84;;;24.58;38.39
12666;BME280;58531;59.050;17.416;2023-05-23T05:41:50;100863.66;;;24.93;36.84
12666;BME280;58531;59.050;17.416;2023-05-23T05:44:17;100863.59;;;26.47;32.93
12666;BME280;58531;59.050;17.416;2023-05-23T05:46:45;100869.16;;;26.97;31.54
12666;BME280;58531;59.050;17.416;2023-05-23T05:49:12;100864.34;;;26.83;31.12
12666;BME280;58531;59.050;17.416;2023-05-23T05:51:39;100870.03;;;27.20;31.22
12666;BME280;58531;59.050;17.416;2023-05-23T05:54:06;100869.25;;;27.85;29.34
12666;BME280;58531;59.050;17.416;2023-05-23T05:56:33;100871.97;;;28.75;29.04
12666;BME280;58531;59.050;17.416;2023-05-23T05:59:00;100866.22;;;29.34;27.13
12666;BME280;58531;59.050;17.416;2023-05-23T06:01:26;100860.59;;;28.63;27.35
12666;BME280;58531;59.050;17.416;2023-05-23T06:03:55;100872.88;;;29.24;26.90
12666;BME280;58531;59.050;17.416;2023-05-23T06:06:22;100872.56;;;30.08;26.49
12666;BME280;58531;59.050;17.416;2023-05-23T06:08:49;100865.78;;;29.53;26.81
12666;BME280;58531;59.050;17.416;2023-05-23T06:11:16;100865.34;;;30.54;25.16
12666;BME280;58531;59.050;17.416;2023-05-23T06:13:43;100875.72;;;29.97;25.62
12666;BME280;58531;59.050;17.416;2023-05-23T06:16:09;100866.75;;;31.06;24.79
12666;BME280;58531;59.050;17.416;2023-05-23T06:18:36;100862.19;;;31.35;23.02
12666;BME280;58531;59.050;17.416;2023-05-23T06:21:04;100870.28;;;31.85;23.40
12666;BME280;58531;59.050;17.416;2023-05-23T06:23:31;100866.06;;;30.88;25.06
12666;BME280;58531;59.050;17.416;2023-05-23T06:25:58;100862.50;;;28.38;27.04
12666;BME280;58531;59.050;17.416;2023-05-23T06:28:25;100864.66;;;26.72;30.81
12666;BME280;58531;59.050;17.416;2023-05-23T06:30:51;100863.09;;;26.91;30.77
12666;BME280;58531;59.050;17.416;2023-05-23T06:33:18;100860.53;;;25.69;32.22
12666;BME280;58531;59.050;17.416;2023-05-23T06:35:45;100859.50;;;25.38;32.57
12666;BME280;58531;59.050;17.416;2023-05-23T06:38:13;100864.72;;;25.16;32.44
12666;BME280;58531;59.050;17.416;2023-05-23T06:40:40;100867.97;;;25.15;32.44
12666;BME280;58531;59.050;17.416;2023-05-23T06:43:07;100858.88;;;25.32;32.80
12666;BME280;58531;59.050;17.416;2023-05-23T06:45:33;100858.53;;;24.64;34.05
12666;BME280;58531;59.050;17.416;2023-05-23T06:48:02;100854.50;;;24.39;32.97
12666;BME280;58531;59.050;17.416;2023-05-23T06:50:29;100852.19;;;24.30;32.85
12666;BME280;58531;59.050;17.416;2023-05-23T06:52:56;100856.59;;;24.33;33.17
12666;BME280;58531;59.050;17.416;2023-05-23T06:55:24;100855.06;;;24.06;34.29
12666;BME280;58531;59.050;17.416;2023-05-23T06:57:51;100848.88;;;24.05;33.93
12666;BME280;58531;59.050;17.416;2023-05-23T07:00:18;100859.75;;;25.02;31.87
12666;BME280;58531;59.050;17.416;2023-05-23T07:02:45;100860.22;;;26.13;29.65
12666;BME280;58531;59.050;17.416;2023-05-23T07:05:13;100854.66;;;27.17;29.67
12666;BME280;58531;59.050;17.416;2023-05-23T07:07:41;100855.44;;;27.33;29.36
12666;BME280;58531;59.050;17.416;2023-05-23T07:10:08;100856.47;;;28.32;26.41
12666;BME280;58531;59.050;17.416;2023-05-23T07:12:37;100856.03;;;27.61;29.63
12666;BME280;58531;59.050;17.416;2023-05-23T07:15:04;100856.34;;;29.31;25.88
12666;BME280;58531;59.050;17.416;2023-05-23T07:17:32;100854.66;;;29.04;25.05
12666;BME280;58531;59.050;17.416;2023-05-23T07:20:00;100855.09;;;28.71;26.90
12666;BME280;58531;59.050;17.416;2023-05-23T07:22:28;100853.53;;;27.93;27.78
12666;BME280;58531;59.050;17.416;2023-05-23T07:24:55;100856.97;;;28.61;27.46
12666;BME280;58531;59.050;17.416;2023-05-23T07:27:22;100845.66;;;27.82;29.25
12666;BME280;58531;59.050;17.416;2023-05-23T07:29:50;100845.69;;;28.96;26.66
12666;BME280;58531;59.050;17.416;2023-05-23T07:32:17;100845.41;;;28.62;27.83
12666;BME280;58531;59.050;17.416;2023-05-23T07:34:44;100846.75;;;28.16;28.18
12666;BME280;58531;59.050;17.416;2023-05-23T07:37:11;100844.88;;;27.67;28.59
12666;BME280;58531;59.050;17.416;2023-05-23T07:39:37;100842.16;;;27.89;29.02
12666;BME280;58531;59.050;17.416;2023-05-23T07:42:04;100844.16;;;28.41;27.42
12666;BME280;58531;59.050;17.416;2023-05-23T07:44:31;100844.22;;;28.03;26.82
12666;BME280;58531;59.050;17.416;2023-05-23T07:47:00;100843.44;;;28.55;29.15
12666;BME280;58531;59.050;17.416;2023-05-23T07:49:27;100842.69;;;28.55;26.73
12666;BME280;58531;59.050;17.416;2023-05-23T07:51:54;100836.41;;;28.77;27.74
12666;BME280;58531;59.050;17.416;2023-05-23T07:54:21;100837.72;;;28.61;27.93
12666;BME280;58531;59.050;17.416;2023-05-23T07:56:47;100830.06;;;28.37;27.44
12666;BME280;58531;59.050;17.416;2023-05-23T07:59:14;100834.84;;;27.69;29.82
12666;BME280;58531;59.050;17.416;2023-05-23T08:01:41;100828.78;;;28.15;28.04
12666;BME280;58531;59.050;17.416;2023-05-23T08:04:10;100833.13;;;28.71;27.39
12666;BME280;58531;59.050;17.416;2023-05-23T08:06:37;100831.66;;;27.35;28.53
12666;BME280;58531;59.050;17.416;2023-05-23T08:09:05;100819.44;;;26.93;28.45
12666;BME280;58531;59.050;17.416;2023-05-23T08:11:32;100815.00;;;25.79;31.91
12666;BME280;58531;59.050;17.416;2023-05-23T08:13:58;100819.91;;;25.19;33.88
12666;BME280;58531;59.050;17.416;2023-05-23T08:16:25;100823.13;;;24.71;33.21
12666;BME280;58531;59.050;17.416;2023-05-23T08:18:52;100819.22;;;24.41;36.01
12666;BME280;58531;59.050;17.416;2023-05-23T08:21:22;100815.16;;;24.60;34.15
12666;BME280;58531;59.050;17.416;2023-05-23T08:23:49;100820.78;;;24.75;34.71
12666;BME280;58531;59.050;17.416;2023-05-23T08:26:15;100813.97;;;24.82;35.64
12666;BME280;58531;59.050;17.416;2023-05-23T08:28:42;100816.16;;;24.18;35.91
12666;BME280;58531;59.050;17.416;2023-05-23T08:31:09;100810.00;;;23.87;32.54
12666;BME280;58531;59.050;17.416;2023-05-23T08:33:36;100806.28;;;23.71;33.75
12666;BME280;58531;59.050;17.416;2023-05-23T08:36:03;100817.63;;;24.06;34.63
12666;BME280;58531;59.050;17.416;2023-05-23T08:38:31;100809.44;;;24.19;34.50
12666;BME280;58531;59.050;17.416;2023-05-23T08:41:00;100816.63;;;24.48;34.53
12666;BME280;58531;59.050;17.416;2023-05-23T08:43:27;100812.84;;;24.51;34.49
12666;BME280;58531;59.050;17.416;2023-05-23T08:45:54;100806.41;;;24.49;32.42
12666;BME280;58531;59.050;17.416;2023-05-23T08:48:21;100810.47;;;24.94;31.86
12666;BME280;58531;59.050;17.416;2023-05-23T08:50:52;100813.00;;;24.79;30.96
12666;BME280;58531;59.050;17.416;2023-05-23T08:53:20;100804.03;;;25.05;34.12
12666;BME280;58531;59.050;17.416;2023-05-23T08:55:50;100811.47;;;24.71;31.67
12666;BME280;58531;59.050;17.416;2023-05-23T08:58:18;100810.28;;;24.27;31.03
12666;BME280;58531;59.050;17.416;2023-05-23T09:00:47;100800.97;;;23.79;30.79
12666;BME280;58531;59.050;17.416;2023-05-23T09:03:14;100802.16;;;23.83;32.37
12666;BME280;58531;59.050;17.416;2023-05-23T09:05:41;100804.91;;;23.96;32.58
12666;BME280;58531;59.050;17.416;2023-05-23T09:08:08;100802.53;;;24.44;33.40
12666;BME280;58531;59.050;17.416;2023-05-23T09:10:35;100797.97;;;24.08;32.94
12666;BME280;58531;59.050;17.416;2023-05-23T09:13:04;100801.75;;;23.74;32.25
12666;BME280;58531;59.050;17.416;2023-05-23T09:15:31;100802.44;;;23.30;32.28
12666;BME280;58531;59.050;17.416;2023-05-23T09:17:59;100800.22;;;23.47;33.53
12666;BME280;58531;59.050;17.416;2023-05-23T09:20:27;100796.50;;;23.63;33.96
12666;BME280;58531;59.050;17.416;2023-05-23T09:22:55;100796.94;;;23.67;32.87
12666;BME280;58531;59.050;17.416;2023-05-23T09:25:22;100799.66;;;23.67;33.42
12666;BME280;58531;59.050;17.416;2023-05-23T09:27:51;100800.66;;;23.51;33.16
12666;BME280;58531;59.050;17.416;2023-05-23T09:30:19;100792.72;;;23.34;32.64
12666;BME280;58531;59.050;17.416;2023-05-23T09:32:57;100796.75;;;22.91;32.74
12666;BME280;58531;59.050;17.416;2023-05-23T09:35:24;100792.63;;;23.03;32.48
12666;BME280;58531;59.050;17.416;2023-05-23T09:37:53;100798.78;;;23.09;35.50
12666;BME280;58531;59.050;17.416;2023-05-23T09:40:28;100800.31;;;23.41;35.25
12666;BME280;58531;59.050;17.416;2023-05-23T09:42:56;100809.16;;;23.60;33.57
12666;BME280;58531;59.050;17.416;2023-05-23T09:45:30;100799.72;;;23.80;36.39
12666;BME280;58531;59.050;17.416;2023-05-23T09:47:57;100802.28;;;24.03;33.21
12666;BME280;58531;59.050;17.416;2023-05-23T09:50:30;100800.91;;;23.66;30.77
12666;BME280;58531;59.050;17.416;2023-05-23T09:52:57;100804.97;;;23.91;31.60
12666;BME280;58531;59.050;17.416;2023-05-23T09:55:24;100792.63;;;23.71;29.90
12666;BME280;58531;59.050;17.416;2023-05-23T09:57:53;100804.25;;;23.72;32.72
12666;BME280;58531;59.050;17.416;2023-05-23T10:00:22;100795.59;;;23.23;31.44
12666;BME280;58531;59.050;17.416;2023-05-23T10:03:07;100797.44;;;23.34;32.61
12666;BME280;58531;59.050;17.416;2023-05-23T10:05:40;100803.03;;;23.23;33.91
12666;BME280;58531;59.050;17.416;2023-05-23T10:08:13;100803.22;;;23.62;31.69
12666;BME280;58531;59.050;17.416;2023-05-23T10:14:04;100804.69;;;23.63;30.93
12666;BME280;58531;59.050;17.416;2023-05-23T10:16:39;100801.75;;;23.92;31.79
12666;BME280;58531;59.050;17.416;2023-05-23T10:19:17;100796.63;;;24.01;30.49
12666;BME280;58531;59.050;17.416;2023-05-23T10:21:51;100807.84;;;23.67;30.00
12666;BME280;58531;59.050;17.416;2023-05-23T10:24:21;100810.53;;;23.54;28.00
12666;BME280;58531;59.050;17.416;2023-05-23T10:26:48;100796.94;;;23.67;28.81
12666;BME280;58531;59.050;17.416;2023-05-23T10:29:15;100799.09;;;23.87;30.22
12666;BME280;58531;59.050;17.416;2023-05-23T10:31:42;100795.78;;;23.44;28.04
12666;BME280;58531;59.050;17.416;2023-05-23T10:34:16;100809.50;;;24.01;31.58
12666;BME280;58531;59.050;17.416;2023-05-23T10:36:54;100806.91;;;24.08;30.05
12666;BME280;58531;59.050;17.416;2023-05-23T10:39:30;100796.63;;;24.14;28.48
12666;BME280;58531;59.050;17.416;2023-05-23T10:42:01;100800.88;;;24.54;28.40
12666;BME280;58531;59.050;17.416;2023-05-23T10:44:30;100803.13;;;23.98;28.16
12666;BME280;58531;59.050;17.416;2023-05-23T10:46:58;100802.56;;;24.00;29.44
12666;BME280;58531;59.050;17.416;2023-05-23T10:49:42;100797.53;;;23.60;27.35
12666;BME280;58531;59.050;17.416;2023-05-23T10:52:11;100792.13;;;23.41;28.10
12666;BME280;58531;59.050;17.416;2023-05-23T10:54:42;100796.94;;;23.67;27.82
12666;BME280;58531;59.050;17.416;2023-05-23T10:57:09;100795.25;;;23.64;29.39
12666;BME280;58531;59.050;17.416;2023-05-23T10:59:38;100796.06;;;23.59;31.36
12666;BME280;58531;59.050;17.416;2023-05-23T11:02:09;100798.13;;;23.53;31.03
12666;BME280;58531;59.050;17.416;2023-05-23T11:04:40;100798.44;;;23.81;34.07
12666;BME280;58531;59.050;17.416;2023-05-23T11:07:27;100803.97;;;23.75;32.02
12666;BME280;58531;59.050;17.416;2023-05-23T11:10:08;100799.34;;;23.39;30.88
12666;BME280;58531;59.050;17.416;2023-05-23T11:12:36;100797.47;;;22.73;31.76
12666;BME280;58531;59.050;17.416;2023-05-23T11:15:19;100810.00;;;22.39;33.73
12666;BME280;58531;59.050;17.416;2023-05-23T11:17:50;100809.84;;;22.26;33.51
12666;BME280;58531;59.050;17.416;2023-05-23T11:20:20;100808.97;;;22.42;32.59
12666;BME280;58531;59.050;17.416;2023-05-23T11:22:58;100814.78;;;22.52;33.22
12666;BME280;58531;59.050;17.416;2023-05-23T11:25:39;100811.25;;;22.38;30.41
12666;BME280;58531;59.050;17.416;2023-05-23T11:28:06;100814.34;;;22.90;32.43
12666;BME280;58531;59.050;17.416;2023-05-23T11:30:34;100816.66;;;23.23;31.80
12666;BME280;58531;59.050;17.416;2023-05-23T11:33:06;100811.66;;;23.08;29.10
12666;BME280;58531;59.050;17.416;2023-05-23T11:35:36;100813.72;;;22.60;28.90
12666;BME280;58531;59.050;17.416;2023-05-23T11:38:04;100819.69;;;22.35;30.99
12666;BME280;58531;59.050;17.416;2023-05-23T11:40:32;100812.34;;;22.24;30.14
12666;BME280;58531;59.050;17.416;2023-05-23T11:43:01;100813.72;;;22.12;31.52
12666;BME280;58531;59.050;17.416;2023-05-23T11:45:29;100816.75;;;22.27;32.46
12666;BME280;58531;59.050;17.416;2023-05-23T11:47:56;100815.03;;;22.00;32.46
12666;BME280;58531;59.050;17.416;2023-05-23T11:50:23;100810.09;;;21.69;32.56
12666;BME280;58531;59.050;17.416;2023-05-23T11:52:53;100805.88;;;21.34;33.62
12666;BME280;58531;59.050;17.416;2023-05-23T11:55:20;100818.72;;;20.87;33.15
12666;BME280;58531;59.050;17.416;2023-05-23T11:57:48;100815.03;;;20.85;36.47
12666;BME280;58531;59.050;17.416;2023-05-23T12:00:16;100813.50;;;20.95;33.78
12666;BME280;58531;59.050;17.416;2023-05-23T12:02:44;100817.56;;;21.18;37.54
12666;BME280;58531;59.050;17.416;2023-05-23T12:05:12;100814.47;;;21.43;35.22
12666;BME280;58531;59.050;17.416;2023-05-23T12:07:40;100814.34;;;21.65;32.96
12666;BME280;58531;59.050;17.416;2023-05-23T12:10:09;100821.19;;;22.06;34.66
12666;BME280;58531;59.050;17.416;2023-05-23T12:12:36;100819.94;;;22.31;31.66
12666;BME280;58531;59.050;17.416;2023-05-23T12:15:03;100817.06;;;22.48;31.92
12666;BME280;58531;59.050;17.416;2023-05-23T12:17:30;100813.13;;;22.19;32.03
12666;BME280;58531;59.050;17.416;2023-05-23T12:19:58;100822.44;;;22.29;33.31
12666;BME280;58531;59.050;17.416;2023-05-23T12:22:25;100815.94;;;22.62;33.88
12666;BME280;58531;59.050;17.416;2023-05-23T12:24:52;100809.22;;;23.05;33.36
12666;BME280;58531;59.050;17.416;2023-05-23T12:27:27;100811.56;;;23.51;32.45
12666;BME280;58531;59.050;17.416;2023-05-23T12:30:06;100809.59;;;23.64;31.19
12666;BME280;58531;59.050;17.416;2023-05-23T12:32:38;100802.00;;;23.26;30.44
12666;BME280;58531;59.050;17.416;2023-05-23T12:35:06;100803.94;;;23.12;34.59
12666;BME280;58531;59.050;17.416;2023-05-23T12:37:33;100800.69;;;23.14;32.04
12666;BME280;58531;59.050;17.416;2023-05-23T12:40:09;100810.75;;;23.00;32.62
12666;BME280;58531;59.050;17.416;2023-05-23T12:42:50;100801.38;;;22.59;31.23
12666;BME280;58531;59.050;17.416;2023-05-23T12:45:18;100801.91;;;22.28;30.91
12666;BME280;58531;59.050;17.416;2023-05-23T12:47:45;100808.03;;;22.34;33.33
12666;BME280;58531;59.050;17.416;2023-05-23T12:50:12;100802.66;;;22.29;31.35
12666;BME280;58531;59.050;17.416;2023-05-23T12:52:39;100805.41;;;22.23;32.45